Terminal Aerodrome Forecast
Issued by NWS Blacksburg, VA

Home | Current Version | Previous Version | Text Only | Print | Product List | Glossary On
Versions: 1 2 3 4 5 6 7 8 9 10 11 12 13 14 15 16 17 18 19 20 21 22 23
000
FTUS41 KRNK 301736
TAFLYH
TAF
KLYH 301736Z 3018/0118 08004KT 5SM -DZ BR OVC007
     FM010200 09004KT 4SM -RA BR OVC004
     FM010800 13007KT 4SM -RA BR OVC005
     FM011400 14008KT 4SM -RA BR OVC009
     FM011600 20008KT 6SM -SHRA BR OVC011=

USA.gov is the U.S. government's official web portal to all federal, state and local government web resources and services.